Time;durP1;ratioP1;P1;durP2;ratioP2;P2;SDS_P1;SDS_P2;PMS_P1;PMS_P2;Temp;Humidity;BMP_temperature;BMP_pressure;BME280_temperature;BME280_humidity;BME280_pressure;Samples;Min_cycle;Max_cycle;Signal;HPM_P1;HPM_P2
2022/09/16 00:00:41;;;;;;;8.70;4.90;;;;;;;13.90;100.00;98179.69;4973367;28;20228;-53
2022/09/16 00:03:08;;;;;;;5.27;4.10;;;;;;;13.94;100.00;98186.19;4967292;28;20239;-54
2022/09/16 00:05:41;;;;;;;15.30;4.93;;;;;;;14.03;100.00;98181.66;4972562;28;20240;-51
2022/09/16 00:08:07;;;;;;;10.27;4.73;;;;;;;14.12;100.00;98185.81;4971142;28;20334;-51
2022/09/16 00:10:34;;;;;;;8.77;4.50;;;;;;;14.16;100.00;98183.63;4975532;28;20232;-51
2022/09/16 00:13:01;;;;;;;8.67;4.10;;;;;;;14.24;100.00;98183.50;4964114;28;20238;-53
2022/09/16 00:15:28;;;;;;;5.13;4.03;;;;;;;14.21;100.00;98191.75;4970622;28;20251;-51
2022/09/16 00:17:55;;;;;;;7.80;4.13;;;;;;;14.26;100.00;98180.72;4968394;28;20263;-52
2022/09/16 00:20:21;;;;;;;7.63;4.37;;;;;;;14.25;100.00;98181.72;4969873;28;20265;-51
2022/09/16 00:22:50;;;;;;;8.87;4.63;;;;;;;14.25;100.00;98192.22;4965136;28;20229;-51
2022/09/16 00:25:17;;;;;;;6.77;4.77;;;;;;;14.24;100.00;98183.50;4968481;28;20233;-51
2022/09/16 00:27:43;;;;;;;10.40;5.20;;;;;;;14.30;100.00;98174.09;4973940;28;20239;-54
2022/09/16 00:30:10;;;;;;;5.37;4.17;;;;;;;14.34;100.00;98183.19;4972159;28;20238;-54
2022/09/16 00:32:37;;;;;;;7.30;4.77;;;;;;;14.32;100.00;98178.16;4973401;28;20241;-54
2022/09/16 00:35:04;;;;;;;5.87;4.30;;;;;;;14.34;100.00;98170.06;4965174;28;20241;-54
2022/09/16 00:37:32;;;;;;;9.93;4.83;;;;;;;14.33;100.00;98165.81;4970923;28;20308;-51
2022/09/16 00:40:00;;;;;;;11.53;4.67;;;;;;;14.28;100.00;98176.09;4966981;28;20298;-51
2022/09/16 00:42:27;;;;;;;5.93;4.23;;;;;;;14.24;100.00;98172.22;4968266;28;20324;-52
2022/09/16 00:44:57;;;;;;;6.43;4.30;;;;;;;14.21;100.00;98164.69;4972883;28;20241;-51
2022/09/16 00:47:29;;;;;;;8.10;4.60;;;;;;;14.19;100.00;98170.13;4976651;28;20229;-55
2022/09/16 00:50:00;;;;;;;9.60;4.90;;;;;;;14.21;100.00;98170.75;4972691;28;20308;-51
2022/09/16 00:52:28;;;;;;;10.77;5.30;;;;;;;14.21;100.00;98172.56;4968790;28;20248;-51
2022/09/16 00:54:55;;;;;;;6.13;4.97;;;;;;;14.20;100.00;98166.50;4966254;28;20686;-52
2022/09/16 00:57:23;;;;;;;10.80;5.40;;;;;;;14.20;100.00;98163.88;4965699;28;20290;-51
2022/09/16 00:59:54;;;;;;;7.83;5.17;;;;;;;14.21;100.00;98165.50;4959921;28;20811;-52
2022/09/16 01:02:23;;;;;;;8.47;5.40;;;;;;;14.23;100.00;98160.88;4967538;28;20619;-51
2022/09/16 01:04:54;;;;;;;10.57;5.10;;;;;;;14.27;100.00;98171.84;4966644;28;20678;-51
2022/09/16 01:07:30;;;;;;;10.17;5.43;;;;;;;14.28;100.00;98170.84;4973475;28;20233;-50
2022/09/16 01:09:56;;;;;;;6.57;4.47;;;;;;;14.30;100.00;98164.38;4969734;28;20234;-51
2022/09/16 01:12:27;;;;;;;8.03;4.80;;;;;;;14.35;100.00;98174.31;4968697;28;20244;-52
2022/09/16 01:14:55;;;;;;;7.47;4.80;;;;;;;14.39;100.00;98169.53;4967862;28;20233;-51
2022/09/16 01:17:41;;;;;;;8.10;4.70;;;;;;;14.40;100.00;98161.44;4972871;28;20293;-52
2022/09/16 01:20:33;;;;;;;9.30;4.57;;;;;;;14.35;100.00;98152.50;4963946;28;20252;-52
2022/09/16 01:23:19;;;;;;;7.43;4.90;;;;;;;14.31;100.00;98154.69;4962616;28;20237;-51
2022/09/16 01:25:59;;;;;;;9.37;4.77;;;;;;;14.28;100.00;98160.34;4968874;28;20329;-53
2022/09/16 01:28:47;;;;;;;7.47;4.60;;;;;;;14.22;100.00;98166.34;4965955;28;20355;-54
2022/09/16 01:31:20;;;;;;;8.90;4.87;;;;;;;14.14;100.00;98159.38;4969576;28;20244;-51
2022/09/16 01:33:59;;;;;;;6.67;4.70;;;;;;;14.10;100.00;98156.31;4969021;28;20237;-52
2022/09/16 01:36:35;;;;;;;6.47;4.50;;;;;;;14.05;100.00;98147.34;4964605;28;20237;-51
2022/09/16 01:39:12;;;;;;;10.80;4.77;;;;;;;14.05;100.00;98155.22;4962564;28;20233;-52
2022/09/16 01:41:55;;;;;;;7.27;4.77;;;;;;;14.06;100.00;98162.09;4964561;28;20245;-51
2022/09/16 01:44:26;;;;;;;9.87;5.20;;;;;;;14.06;100.00;98154.22;4963670;28;20237;-51
2022/09/16 01:47:01;;;;;;;8.37;5.00;;;;;;;14.06;100.00;98159.47;4966223;28;20316;-50
2022/09/16 01:49:39;;;;;;;8.20;4.90;;;;;;;14.08;100.00;98152.22;4966063;28;20225;-51
2022/09/16 01:52:15;;;;;;;8.47;4.63;;;;;;;14.06;100.00;98160.31;4966861;28;20231;-51
2022/09/16 01:54:45;;;;;;;6.50;4.77;;;;;;;14.07;100.00;98153.22;4972457;28;20320;-52
2022/09/16 01:57:17;;;;;;;10.57;4.97;;;;;;;14.06;100.00;98156.84;4968656;28;20671;-51
2022/09/16 01:59:51;;;;;;;14.10;5.30;;;;;;;14.09;100.00;98167.81;4968450;28;20244;-52
2022/09/16 02:02:25;;;;;;;5.80;4.63;;;;;;;14.12;100.00;98158.72;4964882;28;20236;-51
2022/09/16 02:04:56;;;;;;;20.63;4.87;;;;;;;14.13;100.00;98158.56;4960942;28;20237;-53
2022/09/16 02:07:28;;;;;;;7.97;4.83;;;;;;;14.16;100.00;98150.31;4971484;28;20268;-51
2022/09/16 02:09:58;;;;;;;10.67;5.27;;;;;;;14.21;100.00;98162.88;4966513;28;20590;-51
2022/09/16 02:12:29;;;;;;;9.63;5.20;;;;;;;14.19;100.00;98156.19;4969154;28;20230;-52
2022/09/16 02:15:02;;;;;;;8.93;5.00;;;;;;;14.20;100.00;98157.81;4962316;28;20238;-53
2022/09/16 02:17:33;;;;;;;11.40;4.73;;;;;;;14.17;100.00;98151.94;4968068;28;20248;-52
2022/09/16 02:20:05;;;;;;;12.37;4.67;;;;;;;14.16;100.00;98150.31;4974399;28;20238;-51
2022/09/16 02:22:37;;;;;;;7.27;4.63;;;;;;;14.16;100.00;98152.13;4975131;28;20237;-51
2022/09/16 02:25:07;;;;;;;8.37;5.07;;;;;;;14.21;100.00;98151.56;4973163;28;20240;-52
2022/09/16 02:27:37;;;;;;;9.03;5.17;;;;;;;14.20;100.00;98147.31;4973667;28;20229;-51
2022/09/16 02:30:23;;;;;;;12.73;4.80;;;;;;;14.20;100.00;98153.38;4973098;28;20845;-51
2022/09/16 02:32:57;;;;;;;7.10;5.00;;;;;;;14.20;100.00;98157.81;4970485;28;20266;-52
2022/09/16 02:35:27;;;;;;;7.40;4.73;;;;;;;14.18;100.00;98155.38;4970359;28;20300;-51
2022/09/16 02:37:58;;;;;;;10.43;5.30;;;;;;;14.21;100.00;98159.44;4968922;28;20245;-51
2022/09/16 02:40:29;;;;;;;11.47;5.30;;;;;;;14.17;100.00;98145.88;4969986;28;20254;-53
2022/09/16 02:42:57;;;;;;;11.70;5.03;;;;;;;14.19;100.00;98151.75;4963790;28;20321;-50
2022/09/16 02:45:30;;;;;;;10.47;5.63;;;;;;;14.19;100.00;98159.63;4969263;28;20241;-54
2022/09/16 02:48:06;;;;;;;6.87;5.33;;;;;;;14.22;100.00;98155.81;4964355;28;20292;-52
2022/09/16 02:50:43;;;;;;;12.87;5.27;;;;;;;14.23;100.00;98150.38;4969291;28;20429;-51
2022/09/16 02:53:22;;;;;;;7.50;5.00;;;;;;;14.27;100.00;98153.47;4966233;28;20240;-51
2022/09/16 02:55:54;;;;;;;9.53;5.30;;;;;;;14.25;100.00;98151.00;4972723;28;20231;-51
2022/09/16 02:58:21;;;;;;;11.57;5.83;;;;;;;14.28;100.00;98149.84;4977780;28;20234;-51
2022/09/16 03:03:59;;;;;;;10.47;6.40;;;;;;;14.28;100.00;98145.38;5704461;23;20260;-53
2022/09/16 03:06:45;;;;;;;9.23;5.87;;;;;;;14.28;100.00;98140.13;4945664;28;20237;-53
2022/09/16 03:09:14;;;;;;;11.33;6.80;;;;;;;14.28;100.00;98141.97;4946349;28;20276;-52
2022/09/16 03:11:59;;;;;;;12.77;7.17;;;;;;;14.26;100.00;98141.34;4947333;28;20241;-50
2022/09/16 03:14:51;;;;;;;10.10;6.43;;;;;;;14.24;100.00;98138.88;4947910;28;20226;-52
2022/09/16 03:17:33;;;;;;;13.03;6.73;;;;;;;14.23;100.00;98145.13;4944940;28;20236;-50
2022/09/16 03:20:11;;;;;;;12.37;6.53;;;;;;;14.24;100.00;98144.13;4948302;28;20350;-50
2022/09/16 03:22:47;;;;;;;8.90;7.13;;;;;;;14.19;100.00;98143.06;4952491;28;20237;-52
2022/09/16 03:25:30;;;;;;;10.97;6.70;;;;;;;14.20;100.00;98135.00;4947082;28;20625;-50
2022/09/16 03:28:02;;;;;;;10.73;6.80;;;;;;;14.24;100.00;98131.00;4944303;28;20297;-50
2022/09/16 03:30:33;;;;;;;12.10;6.77;;;;;;;14.21;100.00;98126.13;4945412;28;20682;-50
2022/09/16 03:33:05;;;;;;;11.93;6.80;;;;;;;14.19;100.00;98125.50;4945475;28;20373;-50
2022/09/16 03:35:41;;;;;;;12.67;8.13;;;;;;;14.18;100.00;98126.50;4948246;28;20768;-50
2022/09/16 03:38:10;;;;;;;10.47;7.20;;;;;;;14.19;100.00;98124.69;4944151;28;20312;-52
2022/09/16 03:40:38;;;;;;;9.47;6.93;;;;;;;14.10;100.00;98127.44;4949827;28;20666;-50
2022/09/16 03:43:10;;;;;;;13.73;8.03;;;;;;;14.09;100.00;98117.13;4943579;28;20236;-51
2022/09/16 03:45:39;;;;;;;10.90;7.63;;;;;;;14.09;100.00;98119.75;4948178;28;20710;-50
2022/09/16 03:48:06;;;;;;;13.30;8.37;;;;;;;14.07;100.00;98122.56;4949080;28;20624;-50
2022/09/16 03:50:34;;;;;;;10.63;7.80;;;;;;;14.06;100.00;98120.94;4949872;28;20234;-53
2022/09/16 03:53:02;;;;;;;9.73;7.37;;;;;;;14.04;100.00;98120.31;4946038;28;20227;-50
2022/09/16 03:55:29;;;;;;;8.57;7.40;;;;;;;14.04;100.00;98125.56;4950329;28;20770;-50
2022/09/16 03:57:56;;;;;;;12.70;7.63;;;;;;;14.07;100.00;98129.59;4947737;28;20368;-50
2022/09/16 04:00:23;;;;;;;14.40;7.90;;;;;;;14.09;100.00;98125.00;4948099;28;20231;-51
2022/09/16 04:02:49;;;;;;;11.67;8.10;;;;;;;14.08;100.00;98120.75;4944963;28;20689;-50
2022/09/16 04:05:16;;;;;;;10.50;7.87;;;;;;;14.09;100.00;98125.00;4948245;28;20315;-49
2022/09/16 04:07:44;;;;;;;14.37;9.90;;;;;;;14.06;100.00;98120.94;4946687;28;20236;-50
2022/09/16 04:10:11;;;;;;;11.53;8.00;;;;;;;14.09;100.00;98115.31;4944152;28;20285;-50
2022/09/16 04:12:38;;;;;;;14.00;8.33;;;;;;;14.08;100.00;98120.75;4947504;28;20240;-52
2022/09/16 04:15:05;;;;;;;15.83;8.63;;;;;;;14.07;100.00;98117.31;4942742;28;20804;-50
2022/09/16 04:17:33;;;;;;;12.60;8.20;;;;;;;14.08;100.00;98113.69;4947257;28;20240;-53
2022/09/16 04:20:00;;;;;;;13.00;8.50;;;;;;;14.08;100.00;98118.13;4946657;28;20225;-51
2022/09/16 04:22:28;;;;;;;11.07;8.20;;;;;;;14.09;100.00;98117.94;4945607;28;20721;-51
2022/09/16 04:24:56;;;;;;;14.13;9.00;;;;;;;14.08;100.00;98113.69;4943718;28;20240;-50
2022/09/16 04:27:23;;;;;;;14.40;9.10;;;;;;;14.06;100.00;98118.31;4948181;28;20615;-51
2022/09/16 04:29:50;;;;;;;17.47;9.20;;;;;;;14.03;100.00;98111.59;4945596;28;20249;-52
2022/09/16 04:32:35;;;;;;;12.73;9.13;;;;;;;14.00;100.00;98113.81;4947807;28;20226;-50
2022/09/16 04:35:02;;;;;;;13.93;9.67;;;;;;;13.91;100.00;98113.09;4943545;28;20237;-52
2022/09/16 04:37:30;;;;;;;16.27;9.87;;;;;;;13.92;100.00;98114.72;4947552;28;20278;-52
2022/09/16 04:39:58;;;;;;;16.53;10.63;;;;;;;13.84;100.00;98118.28;4943310;28;20330;-50
2022/09/16 04:42:25;;;;;;;16.20;9.93;;;;;;;13.79;100.00;98125.06;4945089;28;20241;-51
2022/09/16 04:44:51;;;;;;;16.60;10.00;;;;;;;13.76;100.00;98120.22;4944494;28;20233;-50
2022/09/16 04:47:18;;;;;;;14.93;10.07;;;;;;;13.70;100.00;98122.56;4948955;28;20238;-51
2022/09/16 04:49:44;;;;;;;15.17;9.77;;;;;;;13.72;100.00;98125.00;4948265;28;20254;-52
2022/09/16 04:52:11;;;;;;;15.00;10.63;;;;;;;13.69;100.00;98131.44;4948811;28;20740;-52
2022/09/16 04:54:38;;;;;;;17.37;10.17;;;;;;;13.65;100.00;98135.41;4951418;28;20235;-51
2022/09/16 04:57:06;;;;;;;13.40;10.47;;;;;;;13.70;100.00;98134.84;4946106;28;20244;-52
2022/09/16 04:59:32;;;;;;;20.30;11.07;;;;;;;13.65;100.00;98121.47;4950552;28;20261;-53
2022/09/16 05:02:00;;;;;;;15.80;11.57;;;;;;;13.62;100.00;98127.91;4945766;28;20292;-50
2022/09/16 05:04:26;;;;;;;14.00;10.43;;;;;;;13.61;100.00;98117.59;4946054;28;20247;-49
2022/09/16 05:06:53;;;;;;;14.97;11.13;;;;;;;13.51;100.00;98121.31;4944931;28;20220;-52
2022/09/16 05:09:21;;;;;;;12.33;10.20;;;;;;;13.49;100.00;98114.63;4947328;28;20740;-51
2022/09/16 05:11:48;;;;;;;13.70;10.20;;;;;;;13.43;100.00;98119.59;4927961;28;20233;-53
2022/09/16 05:14:18;;;;;;;17.37;11.47;;;;;;;13.39;100.00;98126.16;4946256;28;20273;-53
2022/09/16 05:16:45;;;;;;;16.30;10.00;;;;;;;13.45;100.00;98129.09;4950002;28;20334;-53
2022/09/16 05:19:13;;;;;;;14.50;9.90;;;;;;;13.43;100.00;98135.34;4944535;28;20235;-50
2022/09/16 05:21:41;;;;;;;16.10;10.33;;;;;;;13.40;100.00;98138.28;4924023;29;20237;-50
2022/09/16 05:24:09;;;;;;;16.47;9.60;;;;;;;13.34;100.00;98133.75;4943206;28;20252;-53
2022/09/16 05:26:38;;;;;;;15.57;10.60;;;;;;;13.31;100.00;98141.16;4949152;28;20239;-50
2022/09/16 05:29:08;;;;;;;15.20;10.80;;;;;;;13.28;100.00;98139.72;4947719;28;20230;-51
2022/09/16 05:31:38;;;;;;;15.60;10.47;;;;;;;13.26;100.00;98137.25;4946397;28;20235;-49
2022/09/16 05:34:07;;;;;;;17.30;10.13;;;;;;;13.20;100.00;98132.78;4943279;28;20233;-50
2022/09/16 05:36:36;;;;;;;18.33;10.63;;;;;;;13.24;100.00;98141.06;4946261;28;20245;-50
2022/09/16 05:39:03;;;;;;;19.97;11.47;;;;;;;13.24;100.00;98139.28;4943964;28;20236;-53
2022/09/16 05:41:30;;;;;;;15.23;10.23;;;;;;;13.25;100.00;98138.25;4952960;28;20629;-50
2022/09/16 05:43:58;;;;;;;14.87;10.83;;;;;;;13.20;100.00;98147.66;4947655;28;20256;-50
2022/09/16 05:46:25;;;;;;;15.97;10.33;;;;;;;13.24;100.00;98141.06;4946562;28;20262;-50
2022/09/16 05:48:53;;;;;;;16.03;10.53;;;;;;;13.25;100.00;98137.47;4944795;28;20245;-51
2022/09/16 05:51:21;;;;;;;13.97;10.17;;;;;;;13.19;100.00;98146.88;4934072;29;20235;-50
2022/09/16 05:53:49;;;;;;;12.30;9.07;;;;;;;13.01;100.00;98143.78;4947655;28;20271;-52
2022/09/16 05:56:18;;;;;;;14.70;8.97;;;;;;;13.04;100.00;98146.03;4950281;28;20238;-50
2022/09/16 05:58:46;;;;;;;15.80;8.30;;;;;;;13.03;100.00;98155.69;4949758;28;20281;-51
2022/09/16 06:01:15;;;;;;;15.10;8.70;;;;;;;12.93;100.00;98155.94;4942720;28;20259;-50
2022/09/16 06:03:43;;;;;;;12.03;7.80;;;;;;;12.87;100.00;98147.97;4948444;28;20238;-50
2022/09/16 06:06:18;;;;;;;13.23;8.10;;;;;;;12.91;100.00;98154.47;4953424;28;20240;-50
2022/09/16 06:08:45;;;;;;;10.57;7.10;;;;;;;12.87;100.00;98154.03;4952133;28;20712;-50
2022/09/16 06:11:12;;;;;;;12.77;7.73;;;;;;;12.83;100.00;98161.41;4953728;28;20260;-51
2022/09/16 06:13:39;;;;;;;16.93;7.23;;;;;;;12.87;100.00;98159.28;4952852;28;20245;-50
2022/09/16 06:16:07;;;;;;;11.93;8.07;;;;;;;12.88;100.00;98165.31;4948622;28;20265;-50
2022/09/16 06:18:35;;;;;;;13.33;8.30;;;;;;;12.88;100.00;98162.69;4952255;28;20240;-50
2022/09/16 06:21:05;;;;;;;12.83;8.70;;;;;;;12.88;100.00;98168.75;4948197;28;20237;-50
2022/09/16 06:23:34;;;;;;;12.67;8.20;;;;;;;12.88;100.00;98166.16;4951624;28;20240;-52
2022/09/16 06:26:02;;;;;;;13.33;9.10;;;;;;;12.88;100.00;98166.16;4949723;28;20294;-50
2022/09/16 06:28:29;;;;;;;13.77;9.10;;;;;;;12.89;100.00;98177.41;4949585;28;20233;-49
2022/09/16 06:31:03;;;;;;;11.17;8.07;;;;;;;12.89;100.00;98173.00;4948062;28;20234;-55
2022/09/16 06:33:30;;;;;;;12.90;8.70;;;;;;;12.90;100.00;98177.25;4949248;28;20233;-53
2022/09/16 06:35:57;;;;;;;17.57;8.90;;;;;;;12.87;100.00;98182.03;4943396;29;20288;-55
2022/09/16 06:38:24;;;;;;;14.87;8.70;;;;;;;12.84;100.00;98183.19;4948815;28;20234;-52
2022/09/16 06:40:52;;;;;;;12.00;9.27;;;;;;;12.84;100.00;98176.16;4947824;28;20252;-50
2022/09/16 06:43:18;;;;;;;15.57;9.93;;;;;;;12.85;100.00;98167.28;4952060;28;20332;-50
2022/09/16 06:45:45;;;;;;;14.27;9.47;;;;;;;12.89;100.00;98174.81;4944610;28;20281;-50
2022/09/16 06:48:12;;;;;;;15.40;8.50;;;;;;;12.93;100.00;98174.28;4946068;28;20744;-52
2022/09/16 06:50:39;;;;;;;14.80;8.83;;;;;;;12.96;100.00;98180.97;4945962;28;20229;-53
2022/09/16 06:53:05;;;;;;;11.00;8.00;;;;;;;12.88;100.00;98189.72;4946783;28;20240;-51
2022/09/16 06:55:33;;;;;;;11.20;7.60;;;;;;;12.74;100.00;98180.81;4950227;28;20241;-50
2022/09/16 06:58:20;;;;;;;11.23;7.97;;;;;;;12.70;100.00;98190.03;4946981;28;20312;-51
2022/09/16 07:00:46;;;;;;;10.53;7.87;;;;;;;12.60;100.00;98187.63;4949000;28;20293;-53
2022/09/16 07:03:13;;;;;;;11.30;8.27;;;;;;;12.59;100.00;98191.25;4946217;28;20413;-50
2022/09/16 07:05:39;;;;;;;11.23;7.50;;;;;;;12.62;100.00;98196.13;4949640;28;20591;-50
2022/09/16 07:08:06;;;;;;;13.17;8.27;;;;;;;12.59;100.00;98193.06;4946027;28;20634;-50
2022/09/16 07:10:33;;;;;;;9.10;7.27;;;;;;;12.57;100.00;98195.03;4951873;28;20341;-50
2022/09/16 07:13:00;;;;;;;12.20;7.13;;;;;;;12.59;100.00;98199.09;4951050;28;20240;-50
2022/09/16 07:15:28;;;;;;;9.67;7.20;;;;;;;12.51;100.00;98199.97;4949982;28;20237;-49
2022/09/16 07:17:54;;;;;;;8.60;6.70;;;;;;;12.47;100.00;98190.84;4944656;28;20230;-52
2022/09/16 07:20:21;;;;;;;8.20;5.97;;;;;;;12.54;100.00;98202.25;4950254;28;20239;-50
2022/09/16 07:22:49;;;;;;;8.97;6.83;;;;;;;12.56;100.00;98196.81;4946338;28;20710;-52
2022/09/16 07:25:16;;;;;;;10.43;7.00;;;;;;;12.61;100.00;98194.50;4948675;28;20237;-50
2022/09/16 07:27:43;;;;;;;14.83;7.40;;;;;;;12.69;100.00;98199.69;4947040;28;20625;-53
2022/09/16 07:30:10;;;;;;;12.27;6.90;;;;;;;12.71;100.00;98210.00;4946592;28;20689;-50
2022/09/16 07:32:38;;;;;;;12.33;6.80;;;;;;;12.69;100.00;98210.16;4948803;28;20234;-50
2022/09/16 07:35:06;;;;;;;11.27;6.77;;;;;;;12.68;100.00;98216.38;4946017;28;20326;-50
2022/09/16 07:37:34;;;;;;;11.63;6.30;;;;;;;12.70;100.00;98226.69;4952757;28;20240;-52
2022/09/16 07:40:02;;;;;;;14.03;6.77;;;;;;;12.60;100.00;98231.34;4948698;28;20284;-51
2022/09/16 07:42:29;;;;;;;11.50;6.00;;;;;;;12.59;100.00;98232.34;4949948;28;20729;-49
2022/09/16 07:44:55;;;;;;;10.87;5.97;;;;;;;12.54;100.00;98222.38;4948906;28;20244;-53
2022/09/16 07:47:23;;;;;;;10.35;5.90;;;;;;;12.57;100.00;98227.25;4949102;28;20442;-50
2022/09/16 07:49:54;;;;;;;9.70;5.93;;;;;;;12.69;100.00;98232.91;4946340;28;20720;-50
2022/09/16 07:52:22;;;;;;;7.53;5.33;;;;;;;12.72;100.00;98223.88;4947875;28;20330;-50
2022/09/16 07:54:49;;;;;;;8.47;5.90;;;;;;;12.85;100.00;98224.13;4944061;28;20611;-51
2022/09/16 07:57:16;;;;;;;10.67;6.30;;;;;;;12.91;100.00;98233.91;4948696;28;20285;-50
2022/09/16 07:59:42;;;;;;;10.07;6.00;;;;;;;13.01;100.00;98231.03;4948153;28;20253;-51
2022/09/16 08:02:09;;;;;;;9.27;5.97;;;;;;;13.12;100.00;98229.81;4941084;28;20328;-51
2022/09/16 08:04:36;;;;;;;11.27;5.97;;;;;;;13.21;100.00;98222.69;4947039;28;20894;-50
2022/09/16 08:07:04;;;;;;;11.37;6.07;;;;;;;13.24;100.00;98228.41;4945938;28;20228;-50
2022/09/16 08:09:31;;;;;;;13.07;7.13;;;;;;;13.29;100.00;98231.28;4950249;28;20227;-51
2022/09/16 08:11:59;;;;;;;9.33;6.40;;;;;;;13.42;100.00;98235.13;4946600;28;20230;-52
2022/09/16 08:14:26;;;;;;;8.97;6.33;;;;;;;13.54;100.00;98225.81;4947699;28;20241;-51
2022/09/16 08:16:52;;;;;;;23.17;14.60;;;;;;;13.65;100.00;98234.25;4943686;28;20241;-51
2022/09/16 08:19:21;;;;;;;66.23;45.63;;;;;;;13.81;100.00;98239.31;4947606;28;20257;-52
2022/09/16 08:21:48;;;;;;;26.07;21.00;;;;;;;13.90;100.00;98250.50;4948261;28;20321;-52
2022/09/16 08:24:16;;;;;;;13.07;10.27;;;;;;;13.97;100.00;98243.53;4948763;28;20236;-53
2022/09/16 08:26:42;;;;;;;16.33;7.03;;;;;;;14.00;100.00;98248.44;4950292;28;20236;-53
2022/09/16 08:29:09;;;;;;;10.60;7.10;;;;;;;14.02;98.93;98241.19;4947739;28;20678;-50
2022/09/16 08:31:36;;;;;;;9.10;4.70;;;;;;;14.04;98.60;98248.91;4947480;28;20237;-51
2022/09/16 08:34:03;;;;;;;8.00;5.10;;;;;;;14.16;98.97;98254.47;4947439;28;20245;-51
2022/09/16 08:36:32;;;;;;;8.97;5.57;;;;;;;14.15;95.41;98243.19;4950955;28;20229;-51
2022/09/16 08:38:58;;;;;;;10.90;4.53;;;;;;;14.20;96.11;98258.38;4947582;28;20697;-51
2022/09/16 08:42:02;;;;;;;10.07;3.70;;;;;;;14.24;97.82;98261.47;4949147;28;20746;-53
2022/09/16 08:44:38;;;;;;;7.13;3.77;;;;;;;14.25;99.01;98255.22;4893608;29;20238;-51
2022/09/16 08:47:15;;;;;;;9.23;3.90;;;;;;;14.27;98.48;98259.28;4944188;28;20245;-51
2022/09/16 08:49:44;;;;;;;4.77;3.40;;;;;;;14.18;96.50;98260.38;4947112;28;20240;-51
2022/09/16 08:52:17;;;;;;;6.27;3.57;;;;;;;14.13;97.13;98257.47;4941279;28;20224;-51
2022/09/16 08:54:48;;;;;;;3.70;3.20;;;;;;;14.11;98.08;98265.53;4942363;28;20247;-54
2022/09/16 08:57:21;;;;;;;5.57;3.20;;;;;;;14.09;98.24;98259.66;4946233;28;20241;-53
2022/09/16 08:59:51;;;;;;;5.50;3.07;;;;;;;14.01;99.51;98254.50;4951022;28;20244;-54
2022/09/16 09:02:35;;;;;;;5.07;3.17;;;;;;;14.09;100.00;98261.47;4945973;28;20281;-54
2022/09/16 09:05:03;;;;;;;5.10;3.17;;;;;;;14.18;100.00;98255.13;4945469;28;20297;-54
2022/09/16 09:07:39;;;;;;;4.73;3.13;;;;;;;14.24;100.00;98261.47;4948661;28;20300;-54
2022/09/16 09:10:30;;;;;;;3.07;2.70;;;;;;;14.35;100.00;98255.72;4946243;28;20241;-51
2022/09/16 09:13:07;;;;;;;5.73;2.83;;;;;;;14.43;98.95;98262.69;4946631;28;20222;-52
2022/09/16 09:15:41;;;;;;;4.43;2.30;;;;;;;14.54;96.61;98259.56;4945568;28;20280;-53
2022/09/16 09:18:24;;;;;;;4.87;2.83;;;;;;;14.56;94.85;98257.56;4943556;28;21562;-52
2022/09/16 09:20:57;;;;;;;3.70;2.77;;;;;;;14.59;95.16;98259.84;4945283;28;20283;-52
2022/09/16 09:23:43;;;;;;;5.00;2.67;;;;;;;14.73;93.63;98260.00;4931377;28;20287;-54
2022/09/16 09:26:20;;;;;;;4.57;2.70;;;;;;;14.75;93.54;98264.06;4933604;28;20242;-51
2022/09/16 09:29:03;;;;;;;5.27;3.23;;;;;;;14.81;91.25;98257.25;4945117;28;20732;-51
2022/09/16 09:31:40;;;;;;;12.00;5.07;;;;;;;15.01;89.48;98267.94;4942226;28;20227;-51
2022/09/16 09:34:23;;;;;;;17.43;3.30;;;;;;;15.16;85.98;98267.06;4936290;28;20324;-52
2022/09/16 09:36:59;;;;;;;13.07;3.30;;;;;;;15.37;89.60;98271.47;4943464;28;20776;-53
2022/09/16 09:39:46;;;;;;;6.00;2.60;;;;;;;15.47;84.20;98274.59;4943002;28;20240;-52
2022/09/16 09:42:20;;;;;;;7.73;5.30;;;;;;;15.46;84.54;98277.41;4940242;28;20235;-54
2022/09/16 09:44:55;;;;;;;4.47;3.40;;;;;;;15.49;85.15;98277.00;4946477;28;20314;-51
2022/09/16 09:47:26;;;;;;;3.83;2.67;;;;;;;15.47;88.46;98274.59;4942966;28;20238;-53
2022/09/16 09:49:56;;;;;;;4.87;2.90;;;;;;;15.41;88.76;98274.53;4944526;28;20241;-51
2022/09/16 09:52:29;;;;;;;4.40;2.80;;;;;;;15.28;89.04;98273.44;4947663;28;20277;-51
2022/09/16 09:54:59;;;;;;;5.47;3.20;;;;;;;15.11;89.03;98269.44;4945063;28;20241;-51
2022/09/16 09:57:31;;;;;;;5.47;3.57;;;;;;;14.90;89.76;98274.50;4948920;28;20243;-54
2022/09/16 10:00:05;;;;;;;7.80;3.10;;;;;;;14.66;87.82;98274.84;4944127;28;20245;-51
2022/09/16 10:02:40;;;;;;;6.80;3.30;;;;;;;14.55;86.96;98281.38;4947853;28;20262;-52
2022/09/16 10:05:20;;;;;;;4.63;3.30;;;;;;;14.44;89.89;98280.88;4945793;28;20231;-51
2022/09/16 10:07:47;;;;;;;5.30;4.00;;;;;;;14.31;92.87;98284.16;4930725;28;20242;-51
2022/09/16 10:10:20;;;;;;;7.73;4.27;;;;;;;14.14;93.15;98286.19;4943496;28;20241;-51
2022/09/16 10:12:46;;;;;;;10.83;4.50;;;;;;;14.10;91.54;98289.34;4944855;28;20328;-51
2022/09/16 10:15:24;;;;;;;7.50;4.40;;;;;;;14.11;94.94;98283.09;4944523;28;20233;-52
2022/09/16 10:17:52;;;;;;;7.63;5.40;;;;;;;14.21;92.76;98288.06;4943503;28;20284;-51
2022/09/16 10:20:25;;;;;;;6.97;5.20;;;;;;;14.27;96.47;98289.97;4946385;28;20235;-53
2022/09/16 10:22:57;;;;;;;6.57;4.97;;;;;;;14.41;95.21;98289.09;4944043;28;20237;-53
2022/09/16 10:25:25;;;;;;;10.50;6.10;;;;;;;14.70;94.94;98286.66;4946864;28;20238;-51
2022/09/16 10:27:55;;;;;;;11.57;5.93;;;;;;;14.96;92.90;98288.72;4948852;28;20262;-51
2022/09/16 10:30:23;;;;;;;7.90;4.87;;;;;;;15.29;94.04;98288.22;4950093;28;20231;-53
2022/09/16 10:32:51;;;;;;;7.80;5.37;;;;;;;15.32;90.29;98284.38;4944969;28;20230;-51
2022/09/16 10:35:22;;;;;;;8.40;5.07;;;;;;;15.53;90.08;98282.72;4952710;28;20238;-52
2022/09/16 10:37:54;;;;;;;6.50;4.87;;;;;;;15.68;87.13;98275.53;4946986;28;20234;-53
2022/09/16 10:40:22;;;;;;;11.70;4.40;;;;;;;15.86;85.56;98279.50;4947910;28;20705;-51
2022/09/16 10:42:50;;;;;;;9.33;5.50;;;;;;;16.11;82.61;98271.97;4946596;28;20715;-51
2022/09/16 10:45:25;;;;;;;11.07;5.37;;;;;;;16.41;79.27;98274.31;4948155;28;20243;-51
2022/09/16 10:47:56;;;;;;;6.07;4.30;;;;;;;16.29;80.21;98268.78;4946152;28;20254;-51
2022/09/16 10:50:23;;;;;;;6.07;4.17;;;;;;;16.42;80.99;98270.69;4950270;28;20255;-51
2022/09/16 10:52:50;;;;;;;7.37;3.70;;;;;;;16.44;78.57;98273.09;4947277;28;20283;-52
2022/09/16 10:55:34;;;;;;;9.33;3.87;;;;;;;16.50;75.94;98274.94;4948480;28;20241;-53
2022/09/16 10:58:09;;;;;;;7.10;3.97;;;;;;;16.14;78.30;98276.00;4948515;28;20244;-52
2022/09/16 11:00:47;;;;;;;7.43;3.30;;;;;;;16.28;81.95;98276.91;4952728;28;20280;-50
2022/09/16 11:03:51;;;;;;;9.80;3.60;;;;;;;16.21;80.26;98277.69;4948823;28;20318;-51
2022/09/16 11:06:32;;;;;;;8.83;3.33;;;;;;;16.12;80.76;98278.84;4947957;28;20240;-51
2022/09/16 11:09:08;;;;;;;6.97;3.60;;;;;;;16.00;81.64;98283.84;4946582;28;20259;-51
2022/09/16 11:11:49;;;;;;;5.90;2.30;;;;;;;15.56;79.04;98290.22;4950719;28;20228;-53
2022/09/16 11:14:29;;;;;;;4.37;2.27;;;;;;;15.38;78.68;98294.13;4946748;28;20324;-52
2022/09/16 11:17:19;;;;;;;6.03;2.70;;;;;;;15.20;82.22;98295.41;4936205;28;20235;-50
2022/09/16 11:19:58;;;;;;;5.87;3.00;;;;;;;15.06;86.29;98298.91;4948439;28;20291;-54
2022/09/16 11:22:32;;;;;;;7.97;3.40;;;;;;;14.85;86.67;98294.47;4946479;28;20239;-51
2022/09/16 11:25:17;;;;;;;7.87;3.43;;;;;;;14.77;84.88;98295.41;4943537;28;20298;-51
2022/09/16 11:27:50;;;;;;;8.37;3.50;;;;;;;14.76;89.42;98291.16;4949557;28;20703;-51
2022/09/16 11:30:20;;;;;;;10.57;4.20;;;;;;;14.85;90.32;98297.91;4947689;28;20242;-50
2022/09/16 11:33:06;;;;;;;7.83;4.07;;;;;;;15.19;92.20;98296.41;4948442;28;20242;-51
2022/09/16 11:35:54;;;;;;;9.63;3.63;;;;;;;15.68;92.43;98299.22;4945688;28;20639;-51
2022/09/16 11:38:29;;;;;;;5.77;3.70;;;;;;;16.05;84.88;98297.25;4928722;28;20578;-54
2022/09/16 11:41:23;;;;;;;6.07;3.43;;;;;;;16.08;83.84;98288.94;4949222;28;20825;-53
2022/09/16 11:44:24;;;;;;;6.30;3.20;;;;;;;16.54;82.16;98292.00;4947046;28;20244;-53